sensor_id;sensor_type;location;lat;lon;timestamp;P1;durP1;ratioP1;P2;durP2;ratioP2
68579;SDS011;55555;52.136;5.424;2022-10-19T00:01:07;15.18;;;7.57;;
68579;SDS011;55555;52.136;5.424;2022-10-19T00:03:37;13.87;;;6.57;;
68579;SDS011;55555;52.136;5.424;2022-10-19T00:08:44;14.27;;;7.57;;
68579;SDS011;55555;52.136;5.424;2022-10-19T00:11:12;15.80;;;7.32;;
68579;SDS011;55555;52.136;5.424;2022-10-19T00:13:39;14.02;;;7.20;;
68579;SDS011;55555;52.136;5.424;2022-10-19T00:16:10;12.23;;;7.00;;
68579;SDS011;55555;52.136;5.424;2022-10-19T00:18:40;13.77;;;7.45;;
68579;SDS011;55555;52.136;5.424;2022-10-19T00:21:10;14.40;;;7.05;;
68579;SDS011;55555;52.136;5.424;2022-10-19T00:23:40;13.32;;;7.10;;
68579;SDS011;55555;52.136;5.424;2022-10-19T00:26:07;13.98;;;7.15;;
68579;SDS011;55555;52.136;5.424;2022-10-19T00:28:35;20.90;;;7.03;;
68579;SDS011;55555;52.136;5.424;2022-10-19T00:31:11;15.63;;;6.80;;
68579;SDS011;55555;52.136;5.424;2022-10-19T00:33:41;18.23;;;7.40;;
68579;SDS011;55555;52.136;5.424;2022-10-19T00:36:15;10.77;;;6.55;;
68579;SDS011;55555;52.136;5.424;2022-10-19T00:38:49;12.35;;;6.60;;
68579;SDS011;55555;52.136;5.424;2022-10-19T00:41:16;15.13;;;7.27;;
68579;SDS011;55555;52.136;5.424;2022-10-19T00:43:58;12.18;;;6.57;;
68579;SDS011;55555;52.136;5.424;2022-10-19T00:46:41;11.63;;;6.85;;
68579;SDS011;55555;52.136;5.424;2022-10-19T00:49:16;12.32;;;6.30;;
68579;SDS011;55555;52.136;5.424;2022-10-19T00:51:48;11.65;;;6.65;;
68579;SDS011;55555;52.136;5.424;2022-10-19T00:54:19;12.87;;;7.27;;
68579;SDS011;55555;52.136;5.424;2022-10-19T00:56:48;12.32;;;6.78;;
68579;SDS011;55555;52.136;5.424;2022-10-19T00:59:19;15.32;;;7.10;;
68579;SDS011;55555;52.136;5.424;2022-10-19T01:01:47;12.52;;;7.30;;
68579;SDS011;55555;52.136;5.424;2022-10-19T01:04:15;13.05;;;6.50;;
68579;SDS011;55555;52.136;5.424;2022-10-19T01:06:45;15.07;;;6.30;;
68579;SDS011;55555;52.136;5.424;2022-10-19T01:09:12;12.07;;;6.05;;
68579;SDS011;55555;52.136;5.424;2022-10-19T01:17:11;10.98;;;6.45;;
68579;SDS011;55555;52.136;5.424;2022-10-19T01:20:24;12.17;;;6.07;;
68579;SDS011;55555;52.136;5.424;2022-10-19T01:32:13;16.90;;;6.82;;
68579;SDS011;55555;52.136;5.424;2022-10-19T01:34:50;12.17;;;6.47;;
68579;SDS011;55555;52.136;5.424;2022-10-19T01:37:47;12.20;;;5.78;;
68579;SDS011;55555;52.136;5.424;2022-10-19T01:40:37;11.80;;;6.32;;
68579;SDS011;55555;52.136;5.424;2022-10-19T01:43:25;15.80;;;6.45;;
68579;SDS011;55555;52.136;5.424;2022-10-19T01:48:57;16.87;;;6.37;;
68579;SDS011;55555;52.136;5.424;2022-10-19T01:51:56;13.82;;;6.80;;
68579;SDS011;55555;52.136;5.424;2022-10-19T01:54:29;18.05;;;7.07;;
68579;SDS011;55555;52.136;5.424;2022-10-19T01:57:08;15.45;;;6.03;;
68579;SDS011;55555;52.136;5.424;2022-10-19T01:59:38;12.70;;;6.47;;
68579;SDS011;55555;52.136;5.424;2022-10-19T02:02:06;15.67;;;6.03;;
68579;SDS011;55555;52.136;5.424;2022-10-19T02:04:36;13.88;;;6.95;;
68579;SDS011;55555;52.136;5.424;2022-10-19T02:07:04;14.20;;;6.68;;
68579;SDS011;55555;52.136;5.424;2022-10-19T02:09:34;15.35;;;6.35;;
68579;SDS011;55555;52.136;5.424;2022-10-19T02:12:02;18.23;;;6.78;;
68579;SDS011;55555;52.136;5.424;2022-10-19T02:14:39;14.47;;;7.40;;
68579;SDS011;55555;52.136;5.424;2022-10-19T02:17:18;17.10;;;7.20;;
68579;SDS011;55555;52.136;5.424;2022-10-19T02:19:51;15.70;;;7.10;;
68579;SDS011;55555;52.136;5.424;2022-10-19T02:22:19;10.93;;;6.28;;
68579;SDS011;55555;52.136;5.424;2022-10-19T02:24:47;11.77;;;6.32;;
68579;SDS011;55555;52.136;5.424;2022-10-19T02:27:14;14.07;;;6.67;;
68579;SDS011;55555;52.136;5.424;2022-10-19T02:29:42;12.85;;;6.80;;
68579;SDS011;55555;52.136;5.424;2022-10-19T02:32:10;13.50;;;6.85;;
68579;SDS011;55555;52.136;5.424;2022-10-19T02:34:37;13.82;;;6.60;;
68579;SDS011;55555;52.136;5.424;2022-10-19T02:37:05;12.38;;;7.00;;
68579;SDS011;55555;52.136;5.424;2022-10-19T02:39:32;12.40;;;5.80;;
68579;SDS011;55555;52.136;5.424;2022-10-19T02:44:39;13.45;;;7.32;;
68579;SDS011;55555;52.136;5.424;2022-10-19T02:47:23;14.93;;;7.00;;
68579;SDS011;55555;52.136;5.424;2022-10-19T02:49:57;11.18;;;6.18;;
68579;SDS011;55555;52.136;5.424;2022-10-19T02:52:24;14.13;;;6.60;;
68579;SDS011;55555;52.136;5.424;2022-10-19T02:54:51;14.95;;;6.97;;
68579;SDS011;55555;52.136;5.424;2022-10-19T02:57:19;16.27;;;6.40;;
68579;SDS011;55555;52.136;5.424;2022-10-19T02:59:49;12.43;;;6.55;;
68579;SDS011;55555;52.136;5.424;2022-10-19T03:02:18;14.60;;;6.88;;
68579;SDS011;55555;52.136;5.424;2022-10-19T03:04:46;14.30;;;5.87;;
68579;SDS011;55555;52.136;5.424;2022-10-19T03:07:19;11.93;;;6.50;;
68579;SDS011;55555;52.136;5.424;2022-10-19T03:09:48;13.77;;;7.88;;
68579;SDS011;55555;52.136;5.424;2022-10-19T03:12:15;14.70;;;7.03;;
68579;SDS011;55555;52.136;5.424;2022-10-19T03:14:43;12.48;;;6.45;;
68579;SDS011;55555;52.136;5.424;2022-10-19T03:17:10;12.57;;;7.03;;
68579;SDS011;55555;52.136;5.424;2022-10-19T03:19:37;11.07;;;6.55;;
68579;SDS011;55555;52.136;5.424;2022-10-19T03:22:04;14.00;;;7.38;;
68579;SDS011;55555;52.136;5.424;2022-10-19T03:24:31;13.98;;;6.95;;
68579;SDS011;55555;52.136;5.424;2022-10-19T03:26:58;11.25;;;6.10;;
68579;SDS011;55555;52.136;5.424;2022-10-19T03:29:25;14.83;;;6.83;;
68579;SDS011;55555;52.136;5.424;2022-10-19T03:31:52;9.35;;;5.53;;
68579;SDS011;55555;52.136;5.424;2022-10-19T03:34:19;13.98;;;6.93;;
68579;SDS011;55555;52.136;5.424;2022-10-19T03:36:46;11.55;;;6.25;;
68579;SDS011;55555;52.136;5.424;2022-10-19T03:39:14;14.13;;;6.72;;
68579;SDS011;55555;52.136;5.424;2022-10-19T03:41:42;11.37;;;6.33;;
68579;SDS011;55555;52.136;5.424;2022-10-19T03:44:09;14.63;;;6.57;;
68579;SDS011;55555;52.136;5.424;2022-10-19T03:46:37;11.60;;;5.95;;
68579;SDS011;55555;52.136;5.424;2022-10-19T03:49:04;9.95;;;6.35;;
68579;SDS011;55555;52.136;5.424;2022-10-19T03:51:32;13.45;;;6.30;;
68579;SDS011;55555;52.136;5.424;2022-10-19T03:54:04;11.27;;;5.83;;
68579;SDS011;55555;52.136;5.424;2022-10-19T03:56:36;14.27;;;6.50;;
68579;SDS011;55555;52.136;5.424;2022-10-19T03:59:04;13.82;;;6.70;;
68579;SDS011;55555;52.136;5.424;2022-10-19T04:01:34;13.60;;;6.05;;
68579;SDS011;55555;52.136;5.424;2022-10-19T04:04:05;16.50;;;6.13;;
68579;SDS011;55555;52.136;5.424;2022-10-19T04:06:38;12.20;;;6.53;;
68579;SDS011;55555;52.136;5.424;2022-10-19T04:09:08;10.98;;;5.55;;
68579;SDS011;55555;52.136;5.424;2022-10-19T04:11:39;11.90;;;5.95;;
68579;SDS011;55555;52.136;5.424;2022-10-19T04:14:07;11.68;;;6.30;;
68579;SDS011;55555;52.136;5.424;2022-10-19T04:16:52;11.38;;;5.88;;
68579;SDS011;55555;52.136;5.424;2022-10-19T04:19:19;13.07;;;6.03;;
68579;SDS011;55555;52.136;5.424;2022-10-19T04:21:46;11.65;;;5.53;;
68579;SDS011;55555;52.136;5.424;2022-10-19T04:24:16;13.40;;;6.28;;
68579;SDS011;55555;52.136;5.424;2022-10-19T04:26:48;10.30;;;5.85;;
68579;SDS011;55555;52.136;5.424;2022-10-19T04:29:18;11.10;;;5.57;;
68579;SDS011;55555;52.136;5.424;2022-10-19T04:31:54;12.60;;;6.27;;
68579;SDS011;55555;52.136;5.424;2022-10-19T04:34:21;11.30;;;6.15;;
68579;SDS011;55555;52.136;5.424;2022-10-19T04:36:49;16.80;;;6.28;;
68579;SDS011;55555;52.136;5.424;2022-10-19T04:39:16;9.38;;;6.00;;
68579;SDS011;55555;52.136;5.424;2022-10-19T04:41:43;9.65;;;5.43;;
68579;SDS011;55555;52.136;5.424;2022-10-19T04:44:10;12.30;;;5.13;;
68579;SDS011;55555;52.136;5.424;2022-10-19T04:46:37;10.93;;;6.03;;
68579;SDS011;55555;52.136;5.424;2022-10-19T04:49:04;10.80;;;6.03;;
68579;SDS011;55555;52.136;5.424;2022-10-19T04:51:32;12.85;;;5.68;;
68579;SDS011;55555;52.136;5.424;2022-10-19T04:53:59;11.95;;;5.90;;
68579;SDS011;55555;52.136;5.424;2022-10-19T04:56:28;10.83;;;6.30;;
68579;SDS011;55555;52.136;5.424;2022-10-19T04:58:57;11.30;;;6.35;;
68579;SDS011;55555;52.136;5.424;2022-10-19T05:01:26;10.93;;;6.30;;
68579;SDS011;55555;52.136;5.424;2022-10-19T05:03:56;10.00;;;5.40;;
68579;SDS011;55555;52.136;5.424;2022-10-19T05:06:26;14.80;;;6.15;;
68579;SDS011;55555;52.136;5.424;2022-10-19T05:08:54;10.23;;;5.50;;
68579;SDS011;55555;52.136;5.424;2022-10-19T05:11:21;13.90;;;5.15;;
68579;SDS011;55555;52.136;5.424;2022-10-19T05:13:48;11.05;;;5.93;;
68579;SDS011;55555;52.136;5.424;2022-10-19T05:16:16;11.05;;;5.70;;
68579;SDS011;55555;52.136;5.424;2022-10-19T05:18:46;9.38;;;6.35;;
68579;SDS011;55555;52.136;5.424;2022-10-19T05:21:25;12.70;;;5.70;;
68579;SDS011;55555;52.136;5.424;2022-10-19T05:23:54;9.90;;;5.63;;
68579;SDS011;55555;52.136;5.424;2022-10-19T05:26:23;10.55;;;5.55;;
68579;SDS011;55555;52.136;5.424;2022-10-19T05:28:53;9.02;;;5.15;;
68579;SDS011;55555;52.136;5.424;2022-10-19T05:31:27;14.23;;;6.10;;
68579;SDS011;55555;52.136;5.424;2022-10-19T05:33:57;14.17;;;6.17;;
68579;SDS011;55555;52.136;5.424;2022-10-19T05:36:26;13.05;;;6.35;;
68579;SDS011;55555;52.136;5.424;2022-10-19T05:39:06;16.50;;;6.38;;
68579;SDS011;55555;52.136;5.424;2022-10-19T05:41:38;11.52;;;5.55;;
68579;SDS011;55555;52.136;5.424;2022-10-19T05:44:09;12.57;;;6.18;;
68579;SDS011;55555;52.136;5.424;2022-10-19T05:46:41;9.07;;;6.07;;
68579;SDS011;55555;52.136;5.424;2022-10-19T05:49:10;11.82;;;6.25;;
68579;SDS011;55555;52.136;5.424;2022-10-19T05:51:38;11.15;;;5.68;;
68579;SDS011;55555;52.136;5.424;2022-10-19T05:54:06;12.98;;;6.30;;
68579;SDS011;55555;52.136;5.424;2022-10-19T05:56:33;12.00;;;6.85;;
68579;SDS011;55555;52.136;5.424;2022-10-19T05:59:02;12.67;;;6.37;;
68579;SDS011;55555;52.136;5.424;2022-10-19T06:01:32;10.85;;;6.15;;
68579;SDS011;55555;52.136;5.424;2022-10-19T06:04:00;11.93;;;6.80;;
68579;SDS011;55555;52.136;5.424;2022-10-19T06:06:29;11.73;;;6.50;;
68579;SDS011;55555;52.136;5.424;2022-10-19T06:08:56;10.98;;;6.63;;
68579;SDS011;55555;52.136;5.424;2022-10-19T06:11:25;12.57;;;6.33;;
68579;SDS011;55555;52.136;5.424;2022-10-19T06:13:56;12.13;;;6.32;;
68579;SDS011;55555;52.136;5.424;2022-10-19T06:16:25;12.23;;;6.00;;
68579;SDS011;55555;52.136;5.424;2022-10-19T06:18:53;11.38;;;6.32;;
68579;SDS011;55555;52.136;5.424;2022-10-19T06:21:21;14.93;;;6.70;;
68579;SDS011;55555;52.136;5.424;2022-10-19T06:23:51;11.87;;;6.47;;
68579;SDS011;55555;52.136;5.424;2022-10-19T06:26:23;11.27;;;6.30;;
68579;SDS011;55555;52.136;5.424;2022-10-19T06:28:53;10.15;;;6.70;;
68579;SDS011;55555;52.136;5.424;2022-10-19T06:31:26;12.18;;;6.10;;
68579;SDS011;55555;52.136;5.424;2022-10-19T06:33:58;16.70;;;7.30;;
68579;SDS011;55555;52.136;5.424;2022-10-19T06:36:26;17.13;;;6.40;;
68579;SDS011;55555;52.136;5.424;2022-10-19T06:38:56;11.35;;;6.85;;
68579;SDS011;55555;52.136;5.424;2022-10-19T06:41:24;13.20;;;7.18;;
68579;SDS011;55555;52.136;5.424;2022-10-19T06:43:52;12.63;;;7.25;;
68579;SDS011;55555;52.136;5.424;2022-10-19T06:46:22;13.20;;;6.95;;
68579;SDS011;55555;52.136;5.424;2022-10-19T06:48:55;13.40;;;7.47;;
68579;SDS011;55555;52.136;5.424;2022-10-19T06:51:25;10.10;;;6.82;;
68579;SDS011;55555;52.136;5.424;2022-10-19T06:53:53;15.68;;;7.18;;
68579;SDS011;55555;52.136;5.424;2022-10-19T06:56:22;15.38;;;7.03;;
68579;SDS011;55555;52.136;5.424;2022-10-19T06:58:50;11.73;;;6.57;;
68579;SDS011;55555;52.136;5.424;2022-10-19T07:01:18;12.07;;;8.10;;
68579;SDS011;55555;52.136;5.424;2022-10-19T07:03:45;13.43;;;8.25;;
68579;SDS011;55555;52.136;5.424;2022-10-19T07:06:12;17.02;;;7.40;;
68579;SDS011;55555;52.136;5.424;2022-10-19T07:08:40;16.30;;;7.68;;
68579;SDS011;55555;52.136;5.424;2022-10-19T07:11:10;13.85;;;7.35;;
68579;SDS011;55555;52.136;5.424;2022-10-19T07:13:41;14.33;;;7.20;;
68579;SDS011;55555;52.136;5.424;2022-10-19T07:16:13;18.80;;;6.88;;
68579;SDS011;55555;52.136;5.424;2022-10-19T07:18:47;15.77;;;7.60;;
68579;SDS011;55555;52.136;5.424;2022-10-19T07:21:16;12.88;;;7.00;;
68579;SDS011;55555;52.136;5.424;2022-10-19T07:23:44;15.23;;;6.53;;
68579;SDS011;55555;52.136;5.424;2022-10-19T07:26:16;12.87;;;6.47;;
68579;SDS011;55555;52.136;5.424;2022-10-19T07:28:49;18.77;;;7.18;;
68579;SDS011;55555;52.136;5.424;2022-10-19T07:31:17;25.38;;;9.77;;
68579;SDS011;55555;52.136;5.424;2022-10-19T07:33:51;30.88;;;13.77;;
68579;SDS011;55555;52.136;5.424;2022-10-19T07:36:19;23.52;;;8.20;;
68579;SDS011;55555;52.136;5.424;2022-10-19T07:38:46;16.37;;;6.60;;
68579;SDS011;55555;52.136;5.424;2022-10-19T07:41:14;15.38;;;8.52;;
68579;SDS011;55555;52.136;5.424;2022-10-19T07:43:44;20.95;;;7.53;;
68579;SDS011;55555;52.136;5.424;2022-10-19T07:46:13;16.98;;;7.47;;
68579;SDS011;55555;52.136;5.424;2022-10-19T07:48:43;18.92;;;7.28;;
68579;SDS011;55555;52.136;5.424;2022-10-19T07:51:11;16.17;;;7.40;;
68579;SDS011;55555;52.136;5.424;2022-10-19T07:53:40;21.67;;;7.30;;
68579;SDS011;55555;52.136;5.424;2022-10-19T07:56:09;19.60;;;8.18;;
68579;SDS011;55555;52.136;5.424;2022-10-19T07:58:51;23.75;;;8.40;;
68579;SDS011;55555;52.136;5.424;2022-10-19T08:01:24;16.90;;;8.40;;
68579;SDS011;55555;52.136;5.424;2022-10-19T08:04:06;16.47;;;7.77;;
68579;SDS011;55555;52.136;5.424;2022-10-19T08:06:52;16.60;;;7.45;;
68579;SDS011;55555;52.136;5.424;2022-10-19T08:09:20;25.05;;;7.90;;
68579;SDS011;55555;52.136;5.424;2022-10-19T08:12:06;19.63;;;8.77;;
68579;SDS011;55555;52.136;5.424;2022-10-19T08:14:40;15.95;;;7.05;;
68579;SDS011;55555;52.136;5.424;2022-10-19T08:17:09;15.17;;;6.73;;
68579;SDS011;55555;52.136;5.424;2022-10-19T08:19:37;22.73;;;6.55;;
68579;SDS011;55555;52.136;5.424;2022-10-19T08:22:08;19.00;;;7.03;;
68579;SDS011;55555;52.136;5.424;2022-10-19T08:24:36;15.60;;;6.00;;
68579;SDS011;55555;52.136;5.424;2022-10-19T08:27:03;15.60;;;6.07;;
68579;SDS011;55555;52.136;5.424;2022-10-19T08:29:30;17.23;;;5.90;;
68579;SDS011;55555;52.136;5.424;2022-10-19T08:31:58;16.67;;;5.70;;
68579;SDS011;55555;52.136;5.424;2022-10-19T08:34:25;25.92;;;6.35;;
68579;SDS011;55555;52.136;5.424;2022-10-19T08:36:52;17.50;;;6.35;;
68579;SDS011;55555;52.136;5.424;2022-10-19T08:39:19;16.73;;;5.47;;
68579;SDS011;55555;52.136;5.424;2022-10-19T08:42:00;19.20;;;5.60;;
68579;SDS011;55555;52.136;5.424;2022-10-19T08:44:49;11.50;;;4.93;;
68579;SDS011;55555;52.136;5.424;2022-10-19T08:50:25;15.02;;;5.25;;
68579;SDS011;55555;52.136;5.424;2022-10-19T08:53:01;14.27;;;4.90;;
68579;SDS011;55555;52.136;5.424;2022-10-19T08:59:11;12.93;;;4.15;;
68579;SDS011;55555;52.136;5.424;2022-10-19T09:01:55;12.27;;;4.45;;
68579;SDS011;55555;52.136;5.424;2022-10-19T09:04:40;13.02;;;4.47;;
68579;SDS011;55555;52.136;5.424;2022-10-19T09:10:36;14.53;;;4.83;;
68579;SDS011;55555;52.136;5.424;2022-10-19T09:18:33;9.38;;;4.18;;
68579;SDS011;55555;52.136;5.424;2022-10-19T09:21:14;13.93;;;4.30;;
68579;SDS011;55555;52.136;5.424;2022-10-19T09:24:04;11.43;;;5.00;;
68579;SDS011;55555;52.136;5.424;2022-10-19T09:26:44;13.85;;;4.07;;
68579;SDS011;55555;52.136;5.424;2022-10-19T09:29:27;13.25;;;4.20;;
68579;SDS011;55555;52.136;5.424;2022-10-19T09:32:02;11.80;;;4.03;;
68579;SDS011;55555;52.136;5.424;2022-10-19T09:34:40;12.30;;;4.43;;
68579;SDS011;55555;52.136;5.424;2022-10-19T09:37:15;11.37;;;3.90;;
68579;SDS011;55555;52.136;5.424;2022-10-19T09:39:51;12.80;;;4.43;;
68579;SDS011;55555;52.136;5.424;2022-10-19T09:44:59;9.45;;;3.75;;
68579;SDS011;55555;52.136;5.424;2022-10-19T09:47:37;14.95;;;4.05;;
68579;SDS011;55555;52.136;5.424;2022-10-19T09:52:45;10.95;;;3.33;;
68579;SDS011;55555;52.136;5.424;2022-10-19T09:58:18;11.13;;;3.55;;
68579;SDS011;55555;52.136;5.424;2022-10-19T10:00:46;10.05;;;3.03;;
68579;SDS011;55555;52.136;5.424;2022-10-19T10:06:02;15.25;;;2.72;;
68579;SDS011;55555;52.136;5.424;2022-10-19T10:08:43;11.10;;;3.38;;
68579;SDS011;55555;52.136;5.424;2022-10-19T10:11:26;11.07;;;2.17;;
68579;SDS011;55555;52.136;5.424;2022-10-19T10:13:57;8.25;;;2.38;;
68579;SDS011;55555;52.136;5.424;2022-10-19T10:16:42;13.03;;;2.77;;
68579;SDS011;55555;52.136;5.424;2022-10-19T10:19:12;10.13;;;2.10;;
68579;SDS011;55555;52.136;5.424;2022-10-19T10:24:17;6.55;;;1.52;;
68579;SDS011;55555;52.136;5.424;2022-10-19T10:26:50;9.70;;;1.75;;
68579;SDS011;55555;52.136;5.424;2022-10-19T10:29:36;7.77;;;2.30;;
68579;SDS011;55555;52.136;5.424;2022-10-19T10:32:09;10.00;;;2.10;;
68579;SDS011;55555;52.136;5.424;2022-10-19T10:34:47;7.63;;;1.60;;
68579;SDS011;55555;52.136;5.424;2022-10-19T10:37:43;6.95;;;1.75;;
68579;SDS011;55555;52.136;5.424;2022-10-19T10:40:28;8.23;;;2.67;;
68579;SDS011;55555;52.136;5.424;2022-10-19T10:42:57;10.23;;;2.00;;
68579;SDS011;55555;52.136;5.424;2022-10-19T10:45:37;13.27;;;1.95;;
68579;SDS011;55555;52.136;5.424;2022-10-19T10:48:18;7.72;;;2.15;;
68579;SDS011;55555;52.136;5.424;2022-10-19T10:50:59;5.93;;;1.73;;
68579;SDS011;55555;52.136;5.424;2022-10-19T10:56:04;6.20;;;1.53;;
68579;SDS011;55555;52.136;5.424;2022-10-19T11:01:54;6.38;;;2.00;;
68579;SDS011;55555;52.136;5.424;2022-10-19T11:04:50;8.35;;;2.33;;
68579;SDS011;55555;52.136;5.424;2022-10-19T11:07:22;13.07;;;2.28;;
68579;SDS011;55555;52.136;5.424;2022-10-19T11:09:52;6.07;;;1.80;;
68579;SDS011;55555;52.136;5.424;2022-10-19T11:12:30;6.28;;;1.75;;
68579;SDS011;55555;52.136;5.424;2022-10-19T11:15:23;7.35;;;2.03;;
68579;SDS011;55555;52.136;5.424;2022-10-19T11:18:02;10.93;;;2.30;;
68579;SDS011;55555;52.136;5.424;2022-10-19T11:20:42;8.88;;;2.20;;
68579;SDS011;55555;52.136;5.424;2022-10-19T11:23:29;10.00;;;1.70;;
68579;SDS011;55555;52.136;5.424;2022-10-19T11:32:10;7.03;;;1.60;;
68579;SDS011;55555;52.136;5.424;2022-10-19T11:35:08;6.55;;;2.38;;
68579;SDS011;55555;52.136;5.424;2022-10-19T11:43:54;9.23;;;2.20;;
68579;SDS011;55555;52.136;5.424;2022-10-19T11:52:46;8.90;;;1.90;;
68579;SDS011;55555;52.136;5.424;2022-10-19T11:55:36;7.22;;;1.77;;
68579;SDS011;55555;52.136;5.424;2022-10-19T12:10:29;10.20;;;1.67;;
68579;SDS011;55555;52.136;5.424;2022-10-19T12:13:13;9.80;;;2.17;;
68579;SDS011;55555;52.136;5.424;2022-10-19T12:15:47;6.70;;;1.67;;
68579;SDS011;55555;52.136;5.424;2022-10-19T12:18:35;8.73;;;2.00;;
68579;SDS011;55555;52.136;5.424;2022-10-19T12:23:57;5.20;;;1.40;;
68579;SDS011;55555;52.136;5.424;2022-10-19T12:26:28;9.43;;;2.05;;
68579;SDS011;55555;52.136;5.424;2022-10-19T12:29:01;6.78;;;1.75;;
68579;SDS011;55555;52.136;5.424;2022-10-19T12:31:32;9.30;;;2.03;;
68579;SDS011;55555;52.136;5.424;2022-10-19T12:34:07;11.33;;;1.93;;
68579;SDS011;55555;52.136;5.424;2022-10-19T12:37:21;8.38;;;2.00;;
68579;SDS011;55555;52.136;5.424;2022-10-19T12:46:06;8.70;;;2.10;;
68579;SDS011;55555;52.136;5.424;2022-10-19T12:49:49;8.30;;;2.33;;
68579;SDS011;55555;52.136;5.424;2022-10-19T12:51:56;8.07;;;2.60;;
68579;SDS011;55555;52.136;5.424;2022-10-19T12:54:30;9.98;;;2.40;;
68579;SDS011;55555;52.136;5.424;2022-10-19T12:56:59;8.65;;;2.42;;
68579;SDS011;55555;52.136;5.424;2022-10-19T12:59:30;6.32;;;2.35;;
68579;SDS011;55555;52.136;5.424;2022-10-19T13:02:00;8.30;;;2.53;;
68579;SDS011;55555;52.136;5.424;2022-10-19T13:04:32;9.35;;;2.35;;
68579;SDS011;55555;52.136;5.424;2022-10-19T13:07:02;8.18;;;2.33;;
68579;SDS011;55555;52.136;5.424;2022-10-19T13:09:37;8.57;;;2.50;;
68579;SDS011;55555;52.136;5.424;2022-10-19T13:17:44;7.78;;;2.15;;
68579;SDS011;55555;52.136;5.424;2022-10-19T13:22:41;9.43;;;2.83;;
68579;SDS011;55555;52.136;5.424;2022-10-19T13:38:33;6.88;;;2.45;;
68579;SDS011;55555;52.136;5.424;2022-10-19T13:43:51;6.82;;;2.10;;
68579;SDS011;55555;52.136;5.424;2022-10-19T14:06:39;8.35;;;1.77;;
68579;SDS011;55555;52.136;5.424;2022-10-19T14:09:27;7.63;;;1.80;;
68579;SDS011;55555;52.136;5.424;2022-10-19T14:12:09;8.93;;;2.42;;
68579;SDS011;55555;52.136;5.424;2022-10-19T14:14:53;6.80;;;1.65;;
68579;SDS011;55555;52.136;5.424;2022-10-19T14:17:24;8.68;;;1.70;;
68579;SDS011;55555;52.136;5.424;2022-10-19T14:19:56;10.02;;;1.92;;
68579;SDS011;55555;52.136;5.424;2022-10-19T14:27:47;5.53;;;1.67;;
68579;SDS011;55555;52.136;5.424;2022-10-19T14:30:23;7.65;;;2.30;;
68579;SDS011;55555;52.136;5.424;2022-10-19T14:33:00;7.97;;;2.08;;
68579;SDS011;55555;52.136;5.424;2022-10-19T14:35:36;9.57;;;1.70;;
68579;SDS011;55555;52.136;5.424;2022-10-19T14:38:06;9.40;;;2.53;;
68579;SDS011;55555;52.136;5.424;2022-10-19T14:40:38;6.05;;;2.08;;
68579;SDS011;55555;52.136;5.424;2022-10-19T14:43:18;9.05;;;2.00;;
68579;SDS011;55555;52.136;5.424;2022-10-19T14:49:00;7.37;;;1.70;;
68579;SDS011;55555;52.136;5.424;2022-10-19T14:54:16;8.02;;;1.35;;
68579;SDS011;55555;52.136;5.424;2022-10-19T14:59:31;6.28;;;1.52;;
68579;SDS011;55555;52.136;5.424;2022-10-19T15:02:04;11.07;;;1.50;;
68579;SDS011;55555;52.136;5.424;2022-10-19T15:04:45;7.53;;;1.80;;
68579;SDS011;55555;52.136;5.424;2022-10-19T15:07:20;10.57;;;2.05;;
68579;SDS011;55555;52.136;5.424;2022-10-19T15:09:51;6.45;;;2.05;;
68579;SDS011;55555;52.136;5.424;2022-10-19T15:12:29;9.30;;;1.65;;
68579;SDS011;55555;52.136;5.424;2022-10-19T15:15:15;7.60;;;1.53;;
68579;SDS011;55555;52.136;5.424;2022-10-19T15:18:11;7.65;;;1.75;;
68579;SDS011;55555;52.136;5.424;2022-10-19T15:21:16;8.85;;;2.30;;
68579;SDS011;55555;52.136;5.424;2022-10-19T15:23:46;14.88;;;2.25;;
68579;SDS011;55555;52.136;5.424;2022-10-19T15:26:18;9.60;;;1.83;;
68579;SDS011;55555;52.136;5.424;2022-10-19T15:28:52;9.33;;;2.40;;
68579;SDS011;55555;52.136;5.424;2022-10-19T15:31:32;9.82;;;2.08;;
68579;SDS011;55555;52.136;5.424;2022-10-19T15:33:59;6.32;;;2.20;;
68579;SDS011;55555;52.136;5.424;2022-10-19T15:36:28;8.38;;;1.77;;
68579;SDS011;55555;52.136;5.424;2022-10-19T15:39:02;7.93;;;2.00;;
68579;SDS011;55555;52.136;5.424;2022-10-19T15:41:49;7.33;;;1.53;;
68579;SDS011;55555;52.136;5.424;2022-10-19T15:44:33;10.00;;;1.92;;
68579;SDS011;55555;52.136;5.424;2022-10-19T15:52:18;10.02;;;1.92;;
68579;SDS011;55555;52.136;5.424;2022-10-19T15:54:51;9.33;;;2.07;;
68579;SDS011;55555;52.136;5.424;2022-10-19T15:57:30;7.82;;;1.92;;
68579;SDS011;55555;52.136;5.424;2022-10-19T16:00:10;10.05;;;1.95;;
68579;SDS011;55555;52.136;5.424;2022-10-19T16:02:40;11.10;;;2.33;;
68579;SDS011;55555;52.136;5.424;2022-10-19T16:05:08;7.90;;;2.17;;
68579;SDS011;55555;52.136;5.424;2022-10-19T16:07:37;7.97;;;2.03;;
68579;SDS011;55555;52.136;5.424;2022-10-19T16:10:06;10.07;;;2.67;;
68579;SDS011;55555;52.136;5.424;2022-10-19T16:12:41;6.25;;;2.30;;
68579;SDS011;55555;52.136;5.424;2022-10-19T16:15:12;9.55;;;2.20;;
68579;SDS011;55555;52.136;5.424;2022-10-19T16:17:42;13.40;;;3.25;;
68579;SDS011;55555;52.136;5.424;2022-10-19T16:20:13;8.77;;;2.80;;
68579;SDS011;55555;52.136;5.424;2022-10-19T16:22:41;10.55;;;3.45;;
68579;SDS011;55555;52.136;5.424;2022-10-19T16:25:10;7.38;;;2.83;;
68579;SDS011;55555;52.136;5.424;2022-10-19T16:27:38;9.98;;;3.03;;
68579;SDS011;55555;52.136;5.424;2022-10-19T16:30:05;9.93;;;3.33;;
68579;SDS011;55555;52.136;5.424;2022-10-19T16:32:33;10.53;;;2.93;;
68579;SDS011;55555;52.136;5.424;2022-10-19T16:35:00;12.00;;;3.42;;
68579;SDS011;55555;52.136;5.424;2022-10-19T16:37:27;10.32;;;3.85;;
68579;SDS011;55555;52.136;5.424;2022-10-19T16:39:54;8.48;;;3.33;;
68579;SDS011;55555;52.136;5.424;2022-10-19T16:42:21;10.70;;;4.25;;
68579;SDS011;55555;52.136;5.424;2022-10-19T16:44:53;12.03;;;3.67;;
68579;SDS011;55555;52.136;5.424;2022-10-19T16:47:20;10.00;;;4.07;;
68579;SDS011;55555;52.136;5.424;2022-10-19T16:49:47;12.63;;;4.90;;
68579;SDS011;55555;52.136;5.424;2022-10-19T16:52:17;13.38;;;4.65;;
68579;SDS011;55555;52.136;5.424;2022-10-19T16:54:44;17.13;;;5.18;;
68579;SDS011;55555;52.136;5.424;2022-10-19T16:57:10;12.17;;;4.40;;
68579;SDS011;55555;52.136;5.424;2022-10-19T16:59:37;10.80;;;4.78;;
68579;SDS011;55555;52.136;5.424;2022-10-19T17:02:05;13.40;;;5.18;;
68579;SDS011;55555;52.136;5.424;2022-10-19T17:04:32;15.20;;;5.15;;
68579;SDS011;55555;52.136;5.424;2022-10-19T17:06:59;25.20;;;7.32;;
68579;SDS011;55555;52.136;5.424;2022-10-19T17:09:25;17.77;;;7.37;;
68579;SDS011;55555;52.136;5.424;2022-10-19T17:12:07;14.30;;;6.32;;
68579;SDS011;55555;52.136;5.424;2022-10-19T17:14:38;15.48;;;5.75;;
68579;SDS011;55555;52.136;5.424;2022-10-19T17:17:06;12.27;;;4.97;;
68579;SDS011;55555;52.136;5.424;2022-10-19T17:19:35;13.65;;;5.68;;
68579;SDS011;55555;52.136;5.424;2022-10-19T17:22:02;18.33;;;5.63;;
68579;SDS011;55555;52.136;5.424;2022-10-19T17:24:30;13.02;;;6.05;;
68579;SDS011;55555;52.136;5.424;2022-10-19T17:26:58;19.30;;;7.18;;
68579;SDS011;55555;52.136;5.424;2022-10-19T17:29:28;18.38;;;6.45;;
68579;SDS011;55555;52.136;5.424;2022-10-19T17:31:55;11.70;;;6.28;;
68579;SDS011;55555;52.136;5.424;2022-10-19T17:34:23;16.17;;;6.90;;
68579;SDS011;55555;52.136;5.424;2022-10-19T17:36:50;15.45;;;6.50;;
68579;SDS011;55555;52.136;5.424;2022-10-19T17:39:19;21.17;;;7.43;;
68579;SDS011;55555;52.136;5.424;2022-10-19T17:41:55;20.70;;;7.50;;
68579;SDS011;55555;52.136;5.424;2022-10-19T17:44:26;18.73;;;8.52;;
68579;SDS011;55555;52.136;5.424;2022-10-19T17:46:55;12.87;;;6.07;;
68579;SDS011;55555;52.136;5.424;2022-10-19T17:49:21;13.57;;;6.78;;
68579;SDS011;55555;52.136;5.424;2022-10-19T17:51:50;11.38;;;6.60;;